Terminal Aerodrome Forecast
Issued by NWS

Current Version | Previous Version | Graphics & Text | Print | Product List | Glossary On
Versions: 1 2 3 4 5 6 7 8 9 10 11 12 13
000
FTUS41 KRNK 160346 AAA
TAFLWB
TAF AMD
KLWB 160346Z 1604/1624 33010G18KT P6SM OVC030
     FM160700 34007KT P6SM SCT035
     FM161600 09006KT P6SM SKC=

USA.gov is the U.S. government's official web portal to all federal, state and local government web resources and services.